Time;durP1;ratioP1;P1;durP2;ratioP2;P2;SDS_P1;SDS_P2;PMS_P1;PMS_P2;Temp;Humidity;BMP_temperature;BMP_pressure;BME280_temperature;BME280_humidity;BME280_pressure;Samples;Min_cycle;Max_cycle;Signal;HPM_P1;HPM_P2
2024/04/23 00:00:39;;;;;;;1.83;1.73;;;;;;;;;;4955354;28;20050;-74
2024/04/23 00:03:05;;;;;;;2.00;1.90;;;;;;;;;;4972564;28;20038;-75
2024/04/23 00:05:31;;;;;;;2.88;1.90;;;;;;;;;;4938831;28;20046;-74
2024/04/23 00:07:57;;;;;;;4.43;2.15;;;;;;;;;;4971168;28;20054;-74
2024/04/23 00:10:23;;;;;;;1.58;1.48;;;;;;;;;;4971390;28;20522;-75
2024/04/23 00:12:52;;;;;;;1.80;1.27;;;;;;;;;;4939421;28;20042;-74
2024/04/23 00:15:20;;;;;;;1.10;1.10;;;;;;;;;;4923944;28;20038;-75
2024/04/23 00:17:46;;;;;;;0.90;0.90;;;;;;;;;;4939485;28;20550;-75
2024/04/23 00:20:11;;;;;;;1.10;1.10;;;;;;;;;;4955798;28;20069;-75
2024/04/23 00:22:50;;;;;;;1.60;1.50;;;;;;;;;;4972800;28;20043;-75
2024/04/23 00:25:26;;;;;;;1.42;1.33;;;;;;;;;;4957917;28;20035;-74
2024/04/23 00:27:52;;;;;;;1.75;1.42;;;;;;;;;;4973760;28;20042;-74
2024/04/23 00:30:18;;;;;;;2.17;1.98;;;;;;;;;;4958526;28;20347;-75
2024/04/23 00:32:44;;;;;;;1.95;1.77;;;;;;;;;;4939298;28;20089;-75
2024/04/23 00:35:10;;;;;;;1.90;1.80;;;;;;;;;;4938685;28;20057;-75
2024/04/23 00:37:36;;;;;;;1.55;1.45;;;;;;;;;;4970244;28;20031;-75
2024/04/23 00:40:02;;;;;;;2.03;1.92;;;;;;;;;;4954321;28;20109;-75
2024/04/23 00:42:31;;;;;;;1.48;1.38;;;;;;;;;;4972796;28;20038;-75
2024/04/23 00:44:56;;;;;;;1.48;1.45;;;;;;;;;;4973594;28;20381;-75
2024/04/23 00:47:22;;;;;;;1.60;1.50;;;;;;;;;;4972042;28;20396;-75
2024/04/23 00:49:48;;;;;;;1.10;1.10;;;;;;;;;;4953295;28;20093;-75
2024/04/23 00:52:14;;;;;;;1.00;1.00;;;;;;;;;;4938333;28;20530;-76
2024/04/23 00:54:40;;;;;;;1.27;1.20;;;;;;;;;;4954047;28;20077;-75
2024/04/23 00:57:06;;;;;;;1.10;1.10;;;;;;;;;;4971595;28;20125;-75
2024/04/23 00:59:33;;;;;;;0.90;0.90;;;;;;;;;;4970420;28;20054;-74
2024/04/23 01:01:58;;;;;;;1.80;1.50;;;;;;;;;;4971019;28;20117;-75
2024/04/23 01:04:24;;;;;;;1.52;1.42;;;;;;;;;;4954247;28;20499;-75
2024/04/23 01:06:50;;;;;;;1.10;1.05;;;;;;;;;;4971246;28;20042;-74
2024/04/23 01:09:19;;;;;;;1.05;1.05;;;;;;;;;;4937319;28;20050;-75
2024/04/23 01:11:45;;;;;;;1.23;1.23;;;;;;;;;;4953498;28;20087;-75
2024/04/23 01:14:11;;;;;;;1.70;1.60;;;;;;;;;;4938164;28;20515;-74
2024/04/23 01:16:38;;;;;;;0.80;0.80;;;;;;;;;;4970838;28;20066;-75
2024/04/23 01:19:03;;;;;;;1.88;1.77;;;;;;;;;;4970259;28;20047;-75
2024/04/23 01:21:35;;;;;;;2.80;1.70;;;;;;;;;;4953448;28;20041;-74
2024/04/23 01:24:03;;;;;;;2.10;1.60;;;;;;;;;;4969872;28;20038;-75
2024/04/23 01:26:29;;;;;;;1.80;1.70;;;;;;;;;;4970772;28;20035;-73
2024/04/23 01:28:54;;;;;;;3.22;1.58;;;;;;;;;;4958922;28;20097;-74
2024/04/23 01:31:20;;;;;;;2.00;1.85;;;;;;;;;;4973980;28;20038;-75
2024/04/23 01:33:49;;;;;;;1.33;1.27;;;;;;;;;;4941211;28;20046;-74
2024/04/23 01:36:15;;;;;;;2.20;1.30;;;;;;;;;;4973513;28;20498;-74
2024/04/23 01:38:41;;;;;;;1.00;1.00;;;;;;;;;;4940347;28;20078;-75
2024/04/23 01:41:07;;;;;;;0.80;0.80;;;;;;;;;;4973376;28;20133;-75
2024/04/23 01:43:33;;;;;;;0.93;0.93;;;;;;;;;;4974395;28;20038;-75
2024/04/23 01:45:59;;;;;;;1.17;1.17;;;;;;;;;;4957095;28;20043;-75
2024/04/23 01:48:25;;;;;;;0.80;0.80;;;;;;;;;;4972173;28;20047;-75
2024/04/23 01:50:54;;;;;;;0.80;0.80;;;;;;;;;;4973015;28;20050;-74
2024/04/23 01:53:21;;;;;;;0.95;0.95;;;;;;;;;;4974743;28;20034;-75
2024/04/23 01:55:49;;;;;;;1.05;0.77;;;;;;;;;;4974211;28;20054;-75
2024/04/23 01:58:17;;;;;;;0.93;0.93;;;;;;;;;;4973540;28;20163;-73
2024/04/23 02:00:44;;;;;;;0.70;0.70;;;;;;;;;;4972648;28;20047;-75
2024/04/23 02:03:10;;;;;;;0.70;0.70;;;;;;;;;;4974330;28;20039;-74
2024/04/23 02:05:38;;;;;;;1.95;1.30;;;;;;;;;;4972864;28;20063;-75
2024/04/23 02:08:04;;;;;;;0.80;0.80;;;;;;;;;;4973019;28;20116;-75
2024/04/23 02:10:30;;;;;;;1.00;1.00;;;;;;;;;;4973062;28;20057;-76
2024/04/23 02:12:57;;;;;;;0.70;0.70;;;;;;;;;;4974355;28;20122;-76
2024/04/23 02:15:23;;;;;;;1.13;1.13;;;;;;;;;;4974255;28;20054;-75
2024/04/23 02:17:49;;;;;;;0.80;0.80;;;;;;;;;;4972758;28;20031;-73
2024/04/23 02:20:15;;;;;;;0.70;0.70;;;;;;;;;;4971891;28;20071;-75
2024/04/23 02:22:41;;;;;;;0.80;0.80;;;;;;;;;;4972400;28;20081;-73
2024/04/23 02:25:07;;;;;;;0.68;0.68;;;;;;;;;;4972403;28;20039;-75
2024/04/23 02:27:34;;;;;;;1.42;1.00;;;;;;;;;;4956238;28;20050;-74
2024/04/23 02:30:00;;;;;;;0.85;0.80;;;;;;;;;;4971140;28;20138;-75
2024/04/23 02:32:26;;;;;;;0.60;0.60;;;;;;;;;;4962926;28;20414;-74
2024/04/23 02:34:55;;;;;;;0.95;0.95;;;;;;;;;;4954134;29;20062;-74
2024/04/23 02:37:21;;;;;;;0.90;0.90;;;;;;;;;;4953042;29;20085;-74
2024/04/23 02:39:47;;;;;;;0.88;0.80;;;;;;;;;;4950841;28;20051;-75
2024/04/23 02:42:13;;;;;;;1.55;1.45;;;;;;;;;;4952908;29;20043;-75
2024/04/23 02:44:38;;;;;;;1.17;0.73;;;;;;;;;;4953852;29;20039;-74
2024/04/23 02:47:04;;;;;;;0.93;0.93;;;;;;;;;;4954017;29;20094;-74
2024/04/23 02:49:30;;;;;;;0.90;0.90;;;;;;;;;;4953031;28;20118;-74
2024/04/23 02:51:56;;;;;;;1.05;1.05;;;;;;;;;;4952827;29;20043;-75
2024/04/23 02:54:22;;;;;;;0.90;0.90;;;;;;;;;;4968967;28;20389;-75
2024/04/23 02:56:48;;;;;;;0.63;0.63;;;;;;;;;;4952471;29;20518;-75
2024/04/23 02:59:17;;;;;;;0.95;0.95;;;;;;;;;;4952866;28;20055;-74
2024/04/23 03:01:43;;;;;;;0.80;0.80;;;;;;;;;;4936539;29;20053;-74
2024/04/23 03:04:09;;;;;;;2.20;1.05;;;;;;;;;;4936655;29;20482;-73
2024/04/23 03:06:35;;;;;;;0.70;0.70;;;;;;;;;;4952440;29;20162;-75
2024/04/23 03:09:02;;;;;;;0.90;0.90;;;;;;;;;;4919914;29;20575;-75
2024/04/23 03:11:44;;;;;;;0.80;0.80;;;;;;;;;;4960822;28;20081;-76
2024/04/23 03:14:14;;;;;;;0.80;0.80;;;;;;;;;;4972315;28;20120;-74
2024/04/23 03:16:40;;;;;;;0.80;0.80;;;;;;;;;;4950669;28;20078;-75
2024/04/23 03:19:06;;;;;;;0.70;0.70;;;;;;;;;;4969936;28;20046;-75
2024/04/23 03:21:32;;;;;;;2.63;1.05;;;;;;;;;;4972570;28;20510;-74
2024/04/23 03:24:23;;;;;;;0.90;0.90;;;;;;;;;;4939845;28;20030;-75
2024/04/23 03:27:09;;;;;;;3.58;0.95;;;;;;;;;;4972810;28;20035;-75
2024/04/23 03:29:35;;;;;;;0.80;0.80;;;;;;;;;;4938236;28;20058;-76
2024/04/23 03:32:02;;;;;;;0.90;0.90;;;;;;;;;;4955367;28;20534;-75
2024/04/23 03:34:28;;;;;;;0.82;0.82;;;;;;;;;;4939160;28;20051;-75
2024/04/23 03:36:57;;;;;;;0.70;0.70;;;;;;;;;;4939017;28;20529;-75
2024/04/23 03:39:24;;;;;;;0.70;0.70;;;;;;;;;;4971970;28;20062;-75
2024/04/23 03:41:54;;;;;;;1.77;1.20;;;;;;;;;;4971335;28;20051;-74
2024/04/23 03:44:24;;;;;;;1.98;1.88;;;;;;;;;;4939811;28;20085;-74
2024/04/23 03:46:50;;;;;;;0.93;0.93;;;;;;;;;;4938818;28;20042;-76
2024/04/23 03:49:16;;;;;;;1.00;1.00;;;;;;;;;;4938088;28;20286;-75
2024/04/23 03:51:42;;;;;;;2.45;1.10;;;;;;;;;;4954655;28;20058;-75
2024/04/23 03:54:08;;;;;;;1.15;1.13;;;;;;;;;;4954709;28;20061;-75
2024/04/23 03:56:34;;;;;;;0.80;0.80;;;;;;;;;;4954827;28;20078;-75
2024/04/23 03:59:00;;;;;;;0.88;0.88;;;;;;;;;;4953733;28;20074;-74
2024/04/23 04:01:26;;;;;;;0.98;0.98;;;;;;;;;;4971289;28;20074;-75
2024/04/23 04:06:37;;;;;;;0.90;0.90;;;;;;;;;;4957461;28;20138;-75
2024/04/23 04:09:03;;;;;;;0.90;0.90;;;;;;;;;;4938348;28;20046;-74
2024/04/23 04:11:31;;;;;;;0.90;0.90;;;;;;;;;;4972169;28;20081;-74
2024/04/23 04:14:00;;;;;;;0.80;0.80;;;;;;;;;;4971873;28;20042;-75
2024/04/23 04:16:26;;;;;;;1.00;1.00;;;;;;;;;;4972338;28;20431;-75
2024/04/23 04:18:52;;;;;;;0.80;0.80;;;;;;;;;;4953823;28;20042;-74
2024/04/23 04:21:24;;;;;;;1.00;1.00;;;;;;;;;;4954806;28;20054;-74
2024/04/23 04:23:53;;;;;;;0.98;0.98;;;;;;;;;;4954327;28;20031;-74
2024/04/23 04:26:20;;;;;;;0.90;0.90;;;;;;;;;;4971933;28;20053;-75
2024/04/23 04:28:46;;;;;;;2.78;1.02;;;;;;;;;;4968040;28;20133;-74
2024/04/23 04:31:12;;;;;;;1.00;1.00;;;;;;;;;;4969961;28;20034;-74
2024/04/23 04:33:38;;;;;;;0.50;0.50;;;;;;;;;;4968959;28;20510;-74
2024/04/23 04:36:05;;;;;;;1.55;0.90;;;;;;;;;;4971104;28;20527;-75
2024/04/23 04:38:31;;;;;;;1.30;1.20;;;;;;;;;;4969327;28;20129;-75
2024/04/23 04:41:00;;;;;;;1.08;1.08;;;;;;;;;;4954257;28;20042;-75
2024/04/23 04:43:27;;;;;;;3.17;1.50;;;;;;;;;;4954474;28;20034;-75
2024/04/23 04:45:53;;;;;;;0.85;0.85;;;;;;;;;;4970352;28;20130;-75
2024/04/23 04:48:19;;;;;;;1.35;1.25;;;;;;;;;;4971133;28;20039;-74
2024/04/23 04:50:44;;;;;;;1.52;0.95;;;;;;;;;;4954469;28;20027;-75
2024/04/23 04:53:11;;;;;;;1.20;1.20;;;;;;;;;;4970429;28;20071;-75
2024/04/23 04:55:37;;;;;;;1.00;1.00;;;;;;;;;;4935403;28;20105;-76
2024/04/23 04:58:03;;;;;;;1.20;1.20;;;;;;;;;;4952740;28;20062;-77
2024/04/23 05:00:29;;;;;;;0.90;0.90;;;;;;;;;;4936656;28;20062;-77
2024/04/23 05:02:55;;;;;;;0.90;0.90;;;;;;;;;;4967569;28;20031;-76
2024/04/23 05:05:21;;;;;;;1.00;1.00;;;;;;;;;;4954890;28;20047;-75
2024/04/23 05:07:47;;;;;;;0.75;0.75;;;;;;;;;;4973822;28;20126;-75
2024/04/23 05:10:13;;;;;;;0.73;0.73;;;;;;;;;;4970507;28;20218;-75
2024/04/23 05:12:39;;;;;;;1.30;1.30;;;;;;;;;;4970715;28;20038;-76
2024/04/23 05:15:05;;;;;;;1.00;1.00;;;;;;;;;;4971652;28;20039;-75
2024/04/23 05:17:31;;;;;;;1.00;1.00;;;;;;;;;;4943226;28;20038;-75
2024/04/23 05:19:57;;;;;;;2.78;1.10;;;;;;;;;;4976232;28;20058;-75
2024/04/23 05:22:25;;;;;;;1.00;1.00;;;;;;;;;;4944408;28;20035;-75
2024/04/23 05:24:51;;;;;;;1.40;1.30;;;;;;;;;;4957785;28;20038;-75
2024/04/23 05:27:17;;;;;;;2.50;1.10;;;;;;;;;;4953795;28;20398;-74
2024/04/23 05:29:43;;;;;;;1.00;1.00;;;;;;;;;;4969535;28;20423;-75
2024/04/23 05:34:57;;;;;;;0.90;0.90;;;;;;;;;;4969087;28;20074;-76
2024/04/23 05:37:23;;;;;;;1.10;1.10;;;;;;;;;;4968863;28;20041;-76
2024/04/23 05:39:48;;;;;;;1.15;1.15;;;;;;;;;;4951456;28;20554;-76
2024/04/23 05:42:15;;;;;;;1.00;1.00;;;;;;;;;;4970069;28;20039;-75
2024/04/23 05:44:41;;;;;;;1.50;1.40;;;;;;;;;;4968585;28;20035;-75
2024/04/23 05:47:07;;;;;;;1.10;1.10;;;;;;;;;;4952669;28;20031;-75
2024/04/23 05:49:51;;;;;;;1.08;0.82;;;;;;;;;;4951530;28;20069;-76
2024/04/23 05:52:55;;;;;;;1.20;1.20;;;;;;;;;;4950998;29;20034;-76
2024/04/23 05:55:41;;;;;;;1.20;1.20;;;;;;;;;;4950657;29;20171;-74
2024/04/23 05:58:07;;;;;;;1.10;1.10;;;;;;;;;;4949719;29;20054;-77
2024/04/23 06:00:34;;;;;;;1.10;1.10;;;;;;;;;;4932734;29;20086;-76
2024/04/23 06:03:00;;;;;;;2.85;1.42;;;;;;;;;;4950710;28;20123;-75
2024/04/23 06:05:26;;;;;;;1.40;1.40;;;;;;;;;;4937802;29;20035;-75
2024/04/23 06:07:52;;;;;;;1.20;1.20;;;;;;;;;;4956558;29;20027;-76
2024/04/23 06:10:21;;;;;;;2.78;1.42;;;;;;;;;;4938067;29;20051;-76
2024/04/23 06:12:47;;;;;;;2.72;1.17;;;;;;;;;;4951691;28;20086;-74
2024/04/23 06:15:13;;;;;;;1.50;1.50;;;;;;;;;;4940158;28;20062;-74
2024/04/23 06:17:39;;;;;;;1.80;1.20;;;;;;;;;;4975018;28;20039;-75
2024/04/23 06:20:05;;;;;;;0.98;0.98;;;;;;;;;;4972792;28;20059;-74
2024/04/23 06:22:35;;;;;;;1.00;1.00;;;;;;;;;;4963113;28;20088;-74
2024/04/23 06:25:05;;;;;;;1.30;1.20;;;;;;;;;;4972009;28;20035;-75
2024/04/23 06:27:38;;;;;;;1.10;1.10;;;;;;;;;;4958611;28;20038;-76
2024/04/23 06:30:04;;;;;;;1.10;1.10;;;;;;;;;;4939871;28;20059;-74
2024/04/23 06:32:30;;;;;;;0.85;0.85;;;;;;;;;;4956523;28;20515;-75
2024/04/23 06:34:56;;;;;;;2.67;1.50;;;;;;;;;;4955959;28;20063;-76
2024/04/23 06:37:23;;;;;;;1.10;1.10;;;;;;;;;;4972237;28;20023;-75
2024/04/23 06:39:48;;;;;;;0.95;0.95;;;;;;;;;;4955210;28;20063;-76
2024/04/23 06:42:14;;;;;;;1.20;1.10;;;;;;;;;;4972506;28;20038;-75
2024/04/23 06:44:40;;;;;;;1.63;1.30;;;;;;;;;;4973144;28;20047;-75
2024/04/23 06:47:07;;;;;;;2.25;1.30;;;;;;;;;;4956784;28;20118;-75
2024/04/23 06:49:34;;;;;;;1.10;1.10;;;;;;;;;;4971904;28;20109;-75
2024/04/23 06:52:00;;;;;;;1.15;1.15;;;;;;;;;;4955531;28;20037;-74
2024/04/23 06:54:26;;;;;;;1.10;1.10;;;;;;;;;;4974417;28;20031;-76
2024/04/23 06:56:52;;;;;;;1.40;1.40;;;;;;;;;;4967834;28;20390;-75
2024/04/23 06:59:18;;;;;;;5.13;2.17;;;;;;;;;;4937438;28;20035;-74
2024/04/23 07:01:44;;;;;;;2.40;2.20;;;;;;;;;;4969184;28;20047;-74
2024/04/23 07:04:12;;;;;;;4.07;1.52;;;;;;;;;;4946329;28;20721;-74
2024/04/23 07:06:39;;;;;;;2.55;1.52;;;;;;;;;;4961145;28;20030;-74
2024/04/23 07:09:06;;;;;;;1.95;1.30;;;;;;;;;;4966476;28;20093;-74
2024/04/23 07:11:32;;;;;;;3.15;1.50;;;;;;;;;;4930597;28;20038;-74
2024/04/23 07:13:58;;;;;;;1.80;1.70;;;;;;;;;;4967179;28;20058;-75
2024/04/23 07:16:24;;;;;;;2.67;1.73;;;;;;;;;;4968754;28;20130;-75
2024/04/23 07:18:50;;;;;;;8.40;1.90;;;;;;;;;;4966920;28;20498;-73
2024/04/23 07:21:16;;;;;;;2.10;1.70;;;;;;;;;;4970037;28;20078;-75
2024/04/23 07:23:41;;;;;;;2.70;1.50;;;;;;;;;;4973948;28;20129;-75
2024/04/23 07:26:07;;;;;;;3.35;1.42;;;;;;;;;;4978970;28;20130;-74
2024/04/23 07:28:33;;;;;;;1.15;1.15;;;;;;;;;;4981110;28;20047;-75
2024/04/23 07:31:00;;;;;;;1.75;1.65;;;;;;;;;;4982398;28;20086;-75
2024/04/23 07:33:26;;;;;;;3.13;1.83;;;;;;;;;;4982904;28;20062;-76
2024/04/23 07:35:52;;;;;;;1.42;1.40;;;;;;;;;;4981612;28;20065;-75
2024/04/23 07:38:20;;;;;;;3.35;1.70;;;;;;;;;;4979364;28;20124;-75
2024/04/23 07:40:47;;;;;;;2.30;1.50;;;;;;;;;;4980090;28;20066;-76
2024/04/23 07:43:16;;;;;;;1.80;1.55;;;;;;;;;;4980072;28;20146;-74
2024/04/23 07:45:42;;;;;;;1.83;1.30;;;;;;;;;;4964429;28;20046;-75
2024/04/23 07:48:08;;;;;;;1.27;1.23;;;;;;;;;;4978240;28;20056;-75
2024/04/23 07:50:34;;;;;;;1.67;1.20;;;;;;;;;;4933238;29;20047;-74
2024/04/23 07:53:06;;;;;;;4.65;1.40;;;;;;;;;;4959357;28;20027;-75
2024/04/23 07:55:33;;;;;;;3.75;1.52;;;;;;;;;;4980772;28;20046;-73
2024/04/23 07:57:59;;;;;;;3.10;1.80;;;;;;;;;;4947237;28;20043;-74
2024/04/23 08:00:27;;;;;;;7.38;2.10;;;;;;;;;;4971950;28;20057;-75
2024/04/23 08:02:54;;;;;;;1.63;1.52;;;;;;;;;;4922504;28;20062;-75
2024/04/23 08:05:20;;;;;;;2.30;1.80;;;;;;;;;;4935637;28;20138;-74
2024/04/23 08:07:46;;;;;;;2.00;1.80;;;;;;;;;;4936520;28;20423;-75
2024/04/23 08:10:17;;;;;;;1.85;1.75;;;;;;;;;;4950545;28;20387;-74
2024/04/23 08:12:44;;;;;;;4.68;1.50;;;;;;;;;;4968074;28;20027;-75
2024/04/23 08:15:10;;;;;;;3.00;1.63;;;;;;;;;;4951253;28;20034;-75
2024/04/23 08:17:36;;;;;;;1.58;1.50;;;;;;;;;;4969137;28;20112;-75
2024/04/23 08:20:02;;;;;;;1.50;1.50;;;;;;;;;;4967548;28;20047;-76
2024/04/23 08:22:30;;;;;;;3.03;1.60;;;;;;;;;;4969236;28;20073;-74
2024/04/23 08:24:56;;;;;;;5.95;1.90;;;;;;;;;;4967171;28;20069;-75
2024/04/23 08:27:22;;;;;;;2.97;1.80;;;;;;;;;;4968601;28;20503;-75
2024/04/23 08:29:48;;;;;;;1.88;1.55;;;;;;;;;;4951191;28;20046;-75
2024/04/23 08:32:14;;;;;;;2.90;2.08;;;;;;;;;;4966870;28;20039;-75
2024/04/23 08:34:40;;;;;;;4.07;1.85;;;;;;;;;;4966488;28;20452;-75
2024/04/23 08:37:07;;;;;;;1.92;1.83;;;;;;;;;;4966261;28;20050;-76
2024/04/23 08:39:33;;;;;;;3.10;2.03;;;;;;;;;;4967807;28;20657;-75
2024/04/23 08:41:59;;;;;;;2.67;2.00;;;;;;;;;;4967240;28;20042;-75
2024/04/23 08:44:25;;;;;;;3.83;2.08;;;;;;;;;;4950569;28;20455;-75
2024/04/23 08:46:51;;;;;;;2.10;2.00;;;;;;;;;;4967462;28;20507;-74
2024/04/23 08:49:17;;;;;;;3.95;2.20;;;;;;;;;;4967494;28;20046;-75
2024/04/23 08:51:42;;;;;;;4.32;1.90;;;;;;;;;;4967426;28;20039;-75
2024/04/23 08:54:08;;;;;;;2.33;2.00;;;;;;;;;;4950992;28;20034;-75
2024/04/23 08:56:34;;;;;;;2.97;1.65;;;;;;;;;;4947908;29;20039;-75
2024/04/23 08:59:01;;;;;;;2.20;1.85;;;;;;;;;;4949489;28;20055;-76
2024/04/23 09:01:28;;;;;;;9.32;2.20;;;;;;;;;;4951914;28;20137;-75
2024/04/23 09:03:55;;;;;;;4.07;2.58;;;;;;;;;;4967161;28;20041;-75
2024/04/23 09:06:21;;;;;;;4.82;2.20;;;;;;;;;;4967795;28;20085;-74
2024/04/23 09:08:48;;;;;;;2.20;1.98;;;;;;;;;;4964543;28;20429;-75
2024/04/23 09:11:14;;;;;;;2.05;1.92;;;;;;;;;;4934418;28;20042;-74
2024/04/23 09:13:40;;;;;;;7.10;2.00;;;;;;;;;;4935567;28;20051;-75
2024/04/23 09:16:07;;;;;;;1.95;1.85;;;;;;;;;;4933698;28;20138;-75
2024/04/23 09:18:33;;;;;;;1.80;1.67;;;;;;;;;;4926376;28;20122;-75
2024/04/23 09:20:59;;;;;;;3.30;2.17;;;;;;;;;;4918859;29;20197;-74
2024/04/23 09:23:28;;;;;;;1.75;1.65;;;;;;;;;;4918436;29;20027;-74
2024/04/23 09:26:02;;;;;;;3.10;2.00;;;;;;;;;;4949841;29;20414;-74
2024/04/23 09:28:31;;;;;;;2.35;2.15;;;;;;;;;;4894744;28;20038;-75
2024/04/23 09:30:57;;;;;;;2.50;2.05;;;;;;;;;;4951352;28;20640;-75
2024/04/23 09:33:23;;;;;;;1.65;1.55;;;;;;;;;;4954294;29;20086;-75
2024/04/23 09:35:59;;;;;;;2.30;2.20;;;;;;;;;;4908104;29;20051;-75
2024/04/23 09:38:25;;;;;;;2.65;2.28;;;;;;;;;;4970303;28;20551;-76
2024/04/23 09:40:51;;;;;;;1.70;1.60;;;;;;;;;;4951028;28;20138;-75
2024/04/23 09:43:23;;;;;;;4.32;1.42;;;;;;;;;;4949793;29;20039;-75
2024/04/23 09:45:49;;;;;;;5.72;1.55;;;;;;;;;;4950703;28;20031;-75
2024/04/23 09:48:15;;;;;;;3.13;1.80;;;;;;;;;;4948763;28;20037;-74
2024/04/23 09:50:41;;;;;;;2.35;2.15;;;;;;;;;;4937195;29;20396;-75
2024/04/23 09:53:09;;;;;;;3.58;1.85;;;;;;;;;;4940191;28;20509;-74
2024/04/23 09:55:36;;;;;;;3.72;1.70;;;;;;;;;;4972354;28;20109;-74
2024/04/23 09:58:02;;;;;;;2.63;1.80;;;;;;;;;;4924313;28;20538;-74
2024/04/23 10:00:31;;;;;;;2.83;2.10;;;;;;;;;;4939289;28;20157;-74
2024/04/23 10:03:00;;;;;;;2.47;2.22;;;;;;;;;;4973339;28;20527;-74
2024/04/23 10:05:27;;;;;;;2.28;2.08;;;;;;;;;;4956433;28;20035;-74
2024/04/23 10:07:53;;;;;;;1.95;1.70;;;;;;;;;;4924266;28;20105;-74
2024/04/23 10:10:22;;;;;;;3.05;2.30;;;;;;;;;;4971152;28;20094;-74
2024/04/23 10:12:48;;;;;;;2.30;2.10;;;;;;;;;;4971823;28;20074;-75
2024/04/23 10:15:15;;;;;;;2.22;2.00;;;;;;;;;;4956171;28;20545;-75
2024/04/23 10:17:41;;;;;;;4.30;1.58;;;;;;;;;;4973278;28;20034;-74
2024/04/23 10:20:07;;;;;;;2.20;2.10;;;;;;;;;;4971035;28;20489;-74
2024/04/23 10:22:33;;;;;;;2.40;1.73;;;;;;;;;;4972355;28;20529;-75
2024/04/23 10:25:01;;;;;;;2.05;1.95;;;;;;;;;;4956031;28;20093;-75
2024/04/23 10:27:31;;;;;;;1.65;1.63;;;;;;;;;;4957243;28;20511;-74
2024/04/23 10:29:57;;;;;;;1.77;1.67;;;;;;;;;;4923453;28;20130;-74
2024/04/23 10:32:23;;;;;;;1.63;1.60;;;;;;;;;;4972862;28;20046;-74
2024/04/23 10:34:49;;;;;;;1.90;1.83;;;;;;;;;;4955884;28;20054;-74
2024/04/23 10:37:15;;;;;;;3.60;1.88;;;;;;;;;;4971853;28;20054;-74
2024/04/23 10:39:41;;;;;;;2.10;2.00;;;;;;;;;;4970941;28;20054;-74
2024/04/23 10:42:08;;;;;;;2.58;2.05;;;;;;;;;;4955355;28;20050;-74
2024/04/23 10:44:35;;;;;;;2.08;1.98;;;;;;;;;;4955767;28;20031;-74
2024/04/23 10:47:01;;;;;;;2.13;1.92;;;;;;;;;;4955078;28;20049;-74
2024/04/23 10:49:26;;;;;;;2.25;2.05;;;;;;;;;;4972098;28;20047;-74
2024/04/23 10:51:54;;;;;;;2.58;2.15;;;;;;;;;;4973231;28;20035;-75
2024/04/23 10:54:21;;;;;;;2.35;2.15;;;;;;;;;;4974184;28;20062;-74
2024/04/23 10:57:04;;;;;;;2.10;2.00;;;;;;;;;;4974623;28;20117;-75
2024/04/23 10:59:30;;;;;;;3.75;2.10;;;;;;;;;;4975328;28;20042;-74
2024/04/23 11:01:57;;;;;;;2.38;2.28;;;;;;;;;;4982925;28;20093;-76
2024/04/23 11:04:36;;;;;;;5.82;2.20;;;;;;;;;;4948178;28;20089;-75
2024/04/23 11:07:06;;;;;;;2.10;1.95;;;;;;;;;;4982846;28;20106;-75
2024/04/23 11:09:42;;;;;;;2.78;2.20;;;;;;;;;;4974603;28;20065;-76
2024/04/23 11:12:17;;;;;;;2.65;2.45;;;;;;;;;;4973942;28;20034;-74
2024/04/23 11:14:43;;;;;;;3.67;2.65;;;;;;;;;;4971479;28;20070;-74
2024/04/23 11:17:09;;;;;;;4.05;2.17;;;;;;;;;;4955132;28;20066;-75
2024/04/23 11:19:36;;;;;;;3.42;1.88;;;;;;;;;;4971459;28;20542;-75
2024/04/23 11:22:03;;;;;;;1.50;1.40;;;;;;;;;;4970904;28;20582;-75
2024/04/23 11:24:29;;;;;;;1.40;1.40;;;;;;;;;;4955004;28;20046;-77
2024/04/23 11:26:55;;;;;;;1.95;1.85;;;;;;;;;;4954299;28;20043;-75
2024/04/23 11:29:20;;;;;;;2.53;1.80;;;;;;;;;;4954408;28;20049;-76
2024/04/23 11:31:49;;;;;;;2.13;1.90;;;;;;;;;;4954950;28;20045;-77
2024/04/23 11:34:15;;;;;;;2.47;1.80;;;;;;;;;;4940142;28;20081;-76
2024/04/23 11:36:41;;;;;;;2.70;1.90;;;;;;;;;;4972043;28;20062;-76
2024/04/23 11:39:08;;;;;;;2.40;2.10;;;;;;;;;;4971929;28;20085;-76
2024/04/23 11:41:34;;;;;;;2.08;1.90;;;;;;;;;;4954753;28;20051;-76
2024/04/23 11:44:01;;;;;;;4.72;1.88;;;;;;;;;;4971656;28;20030;-75
2024/04/23 11:46:27;;;;;;;2.10;2.00;;;;;;;;;;4938701;28;20074;-75
2024/04/23 11:48:52;;;;;;;2.50;2.20;;;;;;;;;;4953606;28;20050;-75
2024/04/23 11:51:18;;;;;;;1.80;1.70;;;;;;;;;;4973029;28;20046;-75
2024/04/23 11:53:44;;;;;;;2.78;2.20;;;;;;;;;;4974028;28;20046;-74
2024/04/23 11:56:10;;;;;;;2.00;1.90;;;;;;;;;;4957473;28;20031;-75
2024/04/23 11:58:37;;;;;;;2.05;1.95;;;;;;;;;;4940993;28;20129;-75
2024/04/23 12:01:03;;;;;;;2.20;2.00;;;;;;;;;;4957329;28;20188;-76
2024/04/23 12:03:28;;;;;;;2.60;2.03;;;;;;;;;;4974710;28;20558;-75
2024/04/23 12:05:55;;;;;;;2.83;1.80;;;;;;;;;;4972768;28;20063;-75
2024/04/23 12:08:21;;;;;;;2.15;1.92;;;;;;;;;;4937346;28;20035;-75
2024/04/23 12:10:46;;;;;;;2.30;2.15;;;;;;;;;;4972318;28;20093;-75
2024/04/23 12:13:16;;;;;;;2.10;2.00;;;;;;;;;;4970976;28;20354;-75
2024/04/23 12:15:42;;;;;;;2.40;2.30;;;;;;;;;;4971666;28;20101;-75
2024/04/23 12:18:08;;;;;;;3.05;2.25;;;;;;;;;;4953538;28;20078;-75
2024/04/23 12:20:34;;;;;;;4.65;2.40;;;;;;;;;;4970088;28;20062;-75
2024/04/23 12:23:09;;;;;;;2.55;2.15;;;;;;;;;;4969685;28;20113;-75
2024/04/23 12:25:35;;;;;;;3.85;2.25;;;;;;;;;;4969921;28;20047;-75
2024/04/23 12:28:01;;;;;;;2.13;2.03;;;;;;;;;;4969286;28;20027;-75
2024/04/23 12:30:27;;;;;;;3.42;2.13;;;;;;;;;;4936254;28;20042;-74
2024/04/23 12:32:54;;;;;;;6.72;2.15;;;;;;;;;;4937409;28;20023;-75
2024/04/23 12:35:20;;;;;;;12.25;1.83;;;;;;;;;;4970859;28;20482;-75
2024/04/23 12:37:46;;;;;;;5.93;1.90;;;;;;;;;;4969402;28;20030;-75
2024/04/23 12:40:12;;;;;;;1.98;1.77;;;;;;;;;;4968036;28;20073;-74
2024/04/23 12:42:38;;;;;;;2.50;1.42;;;;;;;;;;4969659;28;20122;-75
2024/04/23 12:45:04;;;;;;;2.13;1.63;;;;;;;;;;4969336;28;20133;-75
2024/04/23 12:47:30;;;;;;;2.08;1.65;;;;;;;;;;4953618;28;20462;-75
2024/04/23 12:49:56;;;;;;;2.78;1.65;;;;;;;;;;4968402;28;20058;-76
2024/04/23 12:52:22;;;;;;;2.30;1.92;;;;;;;;;;4970482;28;20061;-76
2024/04/23 12:54:48;;;;;;;2.10;2.00;;;;;;;;;;4937324;28;20400;-75
2024/04/23 12:57:14;;;;;;;4.30;3.00;;;;;;;;;;4952898;28;20518;-76
2024/04/23 12:59:40;;;;;;;2.90;2.65;;;;;;;;;;4964907;28;20125;-75
2024/04/23 13:02:10;;;;;;;3.88;1.85;;;;;;;;;;4960346;28;20042;-75
2024/04/23 13:04:36;;;;;;;1.77;1.67;;;;;;;;;;4934608;28;20037;-75
2024/04/23 13:07:02;;;;;;;2.30;2.10;;;;;;;;;;4966459;28;20423;-75
2024/04/23 13:09:28;;;;;;;1.50;1.50;;;;;;;;;;4949974;28;20059;-76
2024/04/23 13:11:53;;;;;;;2.40;2.30;;;;;;;;;;4966838;28;20051;-75
2024/04/23 13:14:19;;;;;;;2.95;1.90;;;;;;;;;;4967546;28;20472;-76
2024/04/23 13:16:48;;;;;;;3.03;1.70;;;;;;;;;;4971326;28;20054;-76
2024/04/23 13:19:14;;;;;;;2.92;1.98;;;;;;;;;;4949592;28;20066;-75
2024/04/23 13:21:40;;;;;;;4.22;2.05;;;;;;;;;;4957349;28;20078;-76
2024/04/23 13:24:05;;;;;;;1.77;1.65;;;;;;;;;;4958201;28;20138;-75
2024/04/23 13:26:31;;;;;;;2.05;1.75;;;;;;;;;;4959371;28;20529;-73
2024/04/23 13:28:57;;;;;;;1.80;1.80;;;;;;;;;;4969277;28;20075;-75
2024/04/23 13:31:23;;;;;;;1.90;1.80;;;;;;;;;;4954428;28;20423;-75
2024/04/23 13:33:50;;;;;;;2.00;1.80;;;;;;;;;;4935405;28;20031;-75
2024/04/23 13:36:16;;;;;;;5.35;3.03;;;;;;;;;;4969111;28;20047;-75
2024/04/23 13:38:45;;;;;;;2.03;1.92;;;;;;;;;;4938467;28;20438;-75
2024/04/23 13:41:12;;;;;;;2.10;2.00;;;;;;;;;;4954316;28;20047;-75
2024/04/23 13:43:38;;;;;;;4.00;1.98;;;;;;;;;;4954278;28;20523;-76
2024/04/23 13:46:05;;;;;;;2.47;2.03;;;;;;;;;;4969876;28;20030;-76
2024/04/23 13:48:30;;;;;;;1.48;1.40;;;;;;;;;;4968443;28;20039;-75
2024/04/23 13:50:56;;;;;;;1.63;1.55;;;;;;;;;;4954789;28;20126;-76
2024/04/23 13:53:22;;;;;;;1.70;1.60;;;;;;;;;;4954346;28;20085;-75
2024/04/23 13:55:48;;;;;;;2.85;1.90;;;;;;;;;;4970828;28;20035;-75
2024/04/23 13:58:15;;;;;;;1.60;1.60;;;;;;;;;;4952024;28;20483;-75
2024/04/23 14:00:40;;;;;;;4.30;1.80;;;;;;;;;;4969328;28;20090;-75
2024/04/23 14:03:06;;;;;;;4.18;1.60;;;;;;;;;;4970639;28;20130;-75
2024/04/23 14:05:34;;;;;;;2.10;1.40;;;;;;;;;;4937447;28;20423;-74
2024/04/23 14:08:00;;;;;;;4.28;2.03;;;;;;;;;;4953317;28;20418;-75
2024/04/23 14:10:26;;;;;;;1.75;1.67;;;;;;;;;;4952469;28;20051;-75
2024/04/23 14:12:52;;;;;;;2.13;1.88;;;;;;;;;;4969915;28;20038;-73
2024/04/23 14:15:22;;;;;;;3.03;1.45;;;;;;;;;;4936569;28;20114;-78
2024/04/23 14:17:51;;;;;;;1.92;1.83;;;;;;;;;;4970621;28;20059;-75
2024/04/23 14:20:18;;;;;;;1.70;1.55;;;;;;;;;;4969456;28;20050;-75
2024/04/23 14:22:43;;;;;;;1.60;1.50;;;;;;;;;;4969467;28;20122;-75
2024/04/23 14:25:09;;;;;;;2.28;2.17;;;;;;;;;;4953468;28;20555;-75
2024/04/23 14:27:35;;;;;;;1.83;1.73;;;;;;;;;;4952479;28;20093;-75
2024/04/23 14:30:02;;;;;;;1.88;1.52;;;;;;;;;;4950753;28;20047;-77
2024/04/23 14:32:32;;;;;;;1.58;1.50;;;;;;;;;;4952199;28;20046;-75
2024/04/23 14:35:06;;;;;;;1.98;1.88;;;;;;;;;;4951606;28;20161;-75
2024/04/23 14:37:33;;;;;;;2.20;2.00;;;;;;;;;;4969337;28;20042;-75
2024/04/23 14:40:01;;;;;;;4.32;1.75;;;;;;;;;;4968770;28;20586;-75
2024/04/23 14:42:27;;;;;;;2.00;1.90;;;;;;;;;;4968601;28;20035;-75
2024/04/23 14:44:54;;;;;;;1.90;1.80;;;;;;;;;;4953026;28;20037;-75
2024/04/23 14:47:20;;;;;;;2.38;2.08;;;;;;;;;;4968646;28;20046;-75